Weather at Cartierville Airport [CLOSED]

Public forecast

Using degrees Celsius for public forecast. Weather courtesy of forecast.io.

Closest aviation weather report (METAR) to Cartierville Airport

Closest report is Montreal / Pierre Elliott Trudeau International Airport, 2.9 nm (5.5 km) SSW. Retrieved 2020/11/23 18:00 UTC (22 minutes ago):

CYUL 231800Z 26018G24KT 15SM OVC020 01/M03 A2990 RMK SC8 SLP128

Closest aviation forecast (TAF) to Cartierville Airport

Closest forecast is Montreal / Pierre Elliott Trudeau International Airport, 2.9 nm (5.5 km) SSW. Retrieved 2020/11/23 18:42 UTC (0 seconds ago):

TAF CYUL 231738Z 2318/2418 26015G25KT P6SM OVC015 TEMPO 2318/2319 OVC025 FM231900 27020G30KT P6SM OVC025 TEMPO 2319/2401 OVC020 BECMG 2319/2321 28018G28KT FM240100 30012KT P6SM BKN030 FM241000 30012KT P6SM SCT030 RMK NXT FCST BY 232100Z